Time;durP1;ratioP1;P1;durP2;ratioP2;P2;SDS_P1;SDS_P2;PMS_P1;PMS_P2;Temp;Humidity;BMP_temperature;BMP_pressure;BME280_temperature;BME280_humidity;BME280_pressure;Samples;Min_cycle;Max_cycle;Signal;HPM_P1;HPM_P2
2021/12/08 00:05:22;;;;;;;2.85;1.40;;;5.00;99.90;;;;;;20816023;28;20036;-42
2021/12/08 00:15:24;;;;;;;4.38;1.05;;;5.00;99.90;;;;;;20821652;28;20067;-42
2021/12/08 00:25:25;;;;;;;3.10;1.25;;;5.10;99.90;;;;;;20821351;28;20041;-42
2021/12/08 00:35:27;;;;;;;3.30;1.20;;;5.10;99.90;;;;;;20828424;28;20049;-42
2021/12/08 00:45:29;;;;;;;2.42;1.10;;;5.20;99.90;;;;;;20833871;28;20041;-43
2021/12/08 00:55:31;;;;;;;4.10;1.13;;;5.50;99.90;;;;;;20834095;28;20045;-42
2021/12/08 01:05:37;;;;;;;3.05;1.10;;;5.60;99.90;;;;;;20829274;28;20041;-42
2021/12/08 01:15:41;;;;;;;;;;;5.70;99.90;;;;;;20834617;28;20052;-42
2021/12/08 01:25:43;;;;;;;3.70;1.40;;;5.80;99.90;;;;;;20831551;28;19913;-42
2021/12/08 01:35:44;;;;;;;3.55;1.27;;;5.90;99.90;;;;;;20830989;28;20438;-42
2021/12/08 01:45:59;;;;;;;3.00;0.80;;;6.00;99.90;;;;;;20803226;28;20048;-42
2021/12/08 01:56:00;;;;;;;2.58;1.13;;;6.10;99.90;;;;;;20773661;28;20049;-42
2021/12/08 02:06:03;;;;;;;3.95;1.13;;;6.10;99.90;;;;;;20796794;28;20045;-42
2021/12/08 02:16:16;;;;;;;4.53;1.80;;;6.00;99.90;;;;;;20776022;28;20044;-42
2021/12/08 02:26:18;;;;;;;3.33;1.38;;;6.10;99.90;;;;;;20789360;28;20037;-42
2021/12/08 02:56:43;;;;;;;4.07;1.50;;;6.40;99.90;;;;;;20787552;28;20037;-42
2021/12/08 03:06:44;;;;;;;3.75;1.27;;;6.40;99.90;;;;;;20777136;28;20036;-42
2021/12/08 03:16:51;;;;;;;8.98;1.48;;;6.50;99.90;;;;;;20778602;28;20033;-42
2021/12/08 03:36:54;;;;;;;4.07;1.60;;;6.50;99.90;;;;;;20768068;28;20056;-43
2021/12/08 03:47:03;;;;;;;2.00;1.02;;;6.50;99.90;;;;;;20784621;28;20041;-43
2021/12/08 03:57:06;;;;;;;3.85;0.98;;;6.40;99.90;;;;;;20780539;28;20492;-43
2021/12/08 04:07:08;;;;;;;2.92;0.95;;;6.40;99.90;;;;;;20792799;28;20048;-42
2021/12/08 04:17:15;;;;;;;3.97;0.80;;;6.40;99.90;;;;;;20792433;28;20056;-43
2021/12/08 04:27:25;;;;;;;5.73;0.97;;;6.50;99.90;;;;;;20809701;28;20673;-42
2021/12/08 04:37:32;;;;;;;2.10;0.75;;;6.40;99.90;;;;;;20807427;28;21053;-42
2021/12/08 04:47:50;;;;;;;5.87;0.57;;;6.40;99.90;;;;;;20796872;28;21045;-42
2021/12/08 05:08:16;;;;;;;1.58;0.52;;;6.30;99.90;;;;;;20787682;28;20049;-42
2021/12/08 05:18:32;;;;;;;1.33;0.60;;;6.20;99.90;;;;;;20791122;28;20080;-42
2021/12/08 05:28:34;;;;;;;3.28;1.00;;;6.10;99.90;;;;;;20802904;28;21192;-42
2021/12/08 05:38:35;;;;;;;1.80;0.60;;;6.00;99.90;;;;;;20779603;28;20046;-42
2021/12/08 05:48:36;;;;;;;3.88;0.82;;;5.90;99.90;;;;;;20798533;28;20068;-42
2021/12/08 05:58:39;;;;;;;1.30;0.50;;;5.70;99.90;;;;;;20802209;28;20037;-42
2021/12/08 06:08:41;;;;;;;0.82;0.30;;;5.60;99.90;;;;;;20778524;28;20637;-42
2021/12/08 06:18:42;;;;;;;2.03;0.35;;;5.60;99.90;;;;;;20792938;28;20041;-42
2021/12/08 06:28:44;;;;;;;1.40;0.20;;;5.50;99.90;;;;;;20794141;28;20037;-43
2021/12/08 06:38:46;;;;;;;2.05;0.38;;;5.50;99.90;;;;;;20785461;28;20055;-42
2021/12/08 06:48:55;;;;;;;0.82;0.70;;;5.30;99.90;;;;;;20768421;28;20044;-42
2021/12/08 06:59:00;;;;;;;3.58;0.30;;;5.20;99.90;;;;;;20802190;28;20391;-42
2021/12/08 07:09:02;;;;;;;1.67;0.30;;;5.10;99.90;;;;;;20769098;28;20049;-42
2021/12/08 07:19:13;;;;;;;2.10;0.40;;;5.00;99.90;;;;;;20772652;28;20033;-42
2021/12/08 07:29:19;;;;;;;2.72;0.95;;;5.00;99.90;;;;;;20790592;28;20112;-43
2021/12/08 07:39:29;;;;;;;3.25;0.45;;;5.00;99.90;;;;;;20786017;28;20494;-42
2021/12/08 07:49:39;;;;;;;3.17;0.40;;;5.00;99.90;;;;;;20774846;28;20505;-42
2021/12/08 07:59:43;;;;;;;2.03;0.52;;;5.00;99.90;;;;;;20777220;28;20393;-42
2021/12/08 08:09:47;;;;;;;4.95;0.45;;;4.90;99.90;;;;;;20811318;28;20069;-42
2021/12/08 08:19:49;;;;;;;1.48;0.40;;;4.90;99.90;;;;;;20805371;28;20148;-42
2021/12/08 08:29:53;;;;;;;1.98;0.57;;;4.90;99.90;;;;;;20815304;28;20041;-42
2021/12/08 08:39:59;;;;;;;1.88;0.32;;;4.90;99.90;;;;;;20817512;28;20072;-42
2021/12/08 08:50:01;;;;;;;4.78;1.02;;;5.00;99.90;;;;;;20817433;28;20120;-42
2021/12/08 09:00:19;;;;;;;1.52;0.50;;;5.10;99.90;;;;;;20835060;28;20489;-42
2021/12/08 09:10:36;;;;;;;2.83;0.20;;;5.30;99.90;;;;;;20833280;28;20037;-42
2021/12/08 09:20:43;;;;;;;;;;;5.40;99.90;;;;;;20828878;28;20041;-42
2021/12/08 09:30:55;;;;;;;8.90;0.82;;;5.50;99.90;;;;;;20830220;28;19928;-42
2021/12/08 09:41:01;;;;;;;0.93;0.30;;;5.60;99.90;;;;;;20810665;28;20049;-42
2021/12/08 09:51:02;;;;;;;2.40;0.55;;;5.80;99.90;;;;;;20795521;28;20044;-42
2021/12/08 10:01:07;;;;;;;3.20;0.75;;;6.10;99.90;;;;;;20825529;28;20508;-42
2021/12/08 10:11:08;;;;;;;2.60;0.30;;;6.20;99.90;;;;;;20800399;28;20036;-42
2021/12/08 10:21:10;;;;;;;1.77;0.65;;;6.10;99.90;;;;;;20820566;28;20119;-42
2021/12/08 10:31:16;;;;;;;3.85;0.98;;;6.20;99.90;;;;;;20821146;28;20052;-42
2021/12/08 10:41:18;;;;;;;5.55;0.65;;;6.10;99.90;;;;;;20814923;28;20449;-42
2021/12/08 11:01:42;;;;;;;1.73;0.50;;;6.30;99.90;;;;;;20804075;28;20516;-43
2021/12/08 11:11:44;;;;;;;2.47;1.15;;;6.30;99.90;;;;;;20809284;28;20052;-42
2021/12/08 11:21:49;;;;;;;2.42;0.85;;;6.40;99.90;;;;;;20806502;28;21490;-43
2021/12/08 11:32:03;;;;;;;2.95;1.20;;;6.40;99.90;;;;;;20793401;28;20496;-42
2021/12/08 11:42:20;;;;;;;3.17;0.98;;;7.40;99.90;;;;;;20811217;28;20064;-43
2021/12/08 11:52:23;;;;;;;6.25;0.90;;;8.20;99.90;;;;;;20796741;28;20041;-43
2021/12/08 12:02:28;;;;;;;1.58;0.88;;;8.80;99.90;;;;;;20775668;28;20040;-43
2021/12/08 12:12:29;;;;;;;2.25;0.52;;;8.90;99.90;;;;;;20802752;28;20045;-43
2021/12/08 12:22:39;;;;;;;2.13;0.80;;;9.20;99.90;;;;;;20801976;28;20468;-43
2021/12/08 12:32:48;;;;;;;1.13;0.55;;;9.30;99.90;;;;;;20808618;28;20108;-43
2021/12/08 12:42:54;;;;;;;1.50;0.55;;;8.40;99.90;;;;;;20814197;28;20487;-43
2021/12/08 12:52:58;;;;;;;1.45;0.75;;;9.00;99.90;;;;;;20817751;28;20041;-43
2021/12/08 13:03:00;;;;;;;1.63;0.68;;;9.20;99.90;;;;;;20814958;28;20041;-43
2021/12/08 13:13:17;;;;;;;1.52;0.65;;;9.10;99.90;;;;;;20821960;28;20045;-42
2021/12/08 13:23:22;;;;;;;3.40;0.77;;;8.30;99.90;;;;;;20823320;28;20040;-43
2021/12/08 13:33:32;;;;;;;2.30;0.80;;;8.40;99.90;;;;;;20822608;28;20037;-43
2021/12/08 13:43:45;;;;;;;1.65;0.70;;;7.70;99.90;;;;;;20816802;28;20053;-42
2021/12/08 13:54:25;;;;;;;1.52;0.80;;;7.30;99.90;;;;;;20820004;28;20474;-42
2021/12/08 14:04:26;;;;;;;1.75;0.70;;;7.10;99.90;;;;;;20824147;28;20032;-42
2021/12/08 14:14:27;;;;;;;2.95;1.17;;;7.10;99.90;;;;;;20819578;28;20040;-42
2021/12/08 14:24:28;;;;;;;2.28;0.88;;;7.10;99.90;;;;;;20819233;28;20124;-42
2021/12/08 14:34:39;;;;;;;1.75;1.00;;;7.00;99.90;;;;;;20818591;28;20060;-42
2021/12/08 14:44:54;;;;;;;1.38;0.57;;;7.00;99.90;;;;;;20820218;28;20577;-42
2021/12/08 14:54:57;;;;;;;5.47;1.13;;;7.00;99.90;;;;;;20802407;28;20418;-42
2021/12/08 15:05:01;;;;;;;5.55;0.80;;;6.90;99.90;;;;;;20817595;28;20040;-42
2021/12/08 15:15:25;;;;;;;1.15;0.40;;;6.80;99.90;;;;;;20816997;28;20504;-43
2021/12/08 15:25:26;;;;;;;2.03;0.80;;;6.60;99.90;;;;;;20817900;28;20837;-42
2021/12/08 15:35:28;;;;;;;3.60;1.52;;;6.40;99.90;;;;;;20817193;28;20037;-42
2021/12/08 15:45:29;;;;;;;6.57;1.17;;;6.30;99.90;;;;;;20818130;28;22234;-43
2021/12/08 15:55:35;;;;;;;2.95;0.47;;;6.10;99.90;;;;;;20811790;28;20405;-42
2021/12/08 16:05:36;;;;;;;1.65;0.73;;;6.00;99.90;;;;;;20832343;28;20048;-42
2021/12/08 16:15:49;;;;;;;3.08;0.93;;;5.90;99.90;;;;;;20837383;28;20036;-42
2021/12/08 16:25:51;;;;;;;2.08;0.77;;;5.80;99.90;;;;;;20838901;28;20037;-42
2021/12/08 16:35:52;;;;;;;8.13;1.15;;;5.80;99.90;;;;;;20839293;28;20045;-42
2021/12/08 16:45:53;;;;;;;1.55;0.70;;;5.60;99.90;;;;;;20846080;28;20061;-42
2021/12/08 16:55:55;;;;;;;3.30;0.80;;;5.50;99.90;;;;;;20843517;28;20045;-42
2021/12/08 17:05:58;;;;;;;6.10;0.95;;;5.40;99.90;;;;;;20842687;28;20041;-42
2021/12/08 17:15:59;;;;;;;1.83;0.85;;;5.30;99.90;;;;;;20829841;28;20412;-42
2021/12/08 17:26:00;;;;;;;2.17;0.70;;;5.30;99.90;;;;;;20809892;28;20041;-42
2021/12/08 17:36:04;;;;;;;3.75;0.70;;;5.20;99.90;;;;;;20817835;28;20511;-42
2021/12/08 17:46:08;;;;;;;2.28;0.77;;;5.20;99.90;;;;;;20816276;28;20071;-42
2021/12/08 17:56:10;;;;;;;9.27;1.48;;;5.20;99.90;;;;;;20813856;28;20045;-42
2021/12/08 18:06:12;;;;;;;6.13;1.35;;;5.10;99.90;;;;;;20818124;28;20097;-42
2021/12/08 18:16:15;;;;;;;1.85;0.80;;;5.00;99.90;;;;;;20813955;28;20080;-42
2021/12/08 18:26:16;;;;;;;1.63;0.82;;;5.00;99.90;;;;;;20824519;28;20037;-42
2021/12/08 18:36:22;;;;;;;2.65;1.05;;;4.90;99.90;;;;;;20829501;28;20048;-42
2021/12/08 18:46:26;;;;;;;2.83;1.05;;;4.90;99.90;;;;;;20773343;28;20049;-42
2021/12/08 18:56:28;;;;;;;5.45;1.45;;;4.80;99.90;;;;;;20785019;28;20041;-43
2021/12/08 19:06:29;;;;;;;3.03;1.40;;;4.70;99.90;;;;;;20781170;28;20048;-42
2021/12/08 19:16:31;;;;;;;2.85;0.75;;;4.60;99.90;;;;;;20786434;28;20128;-42
2021/12/08 19:26:33;;;;;;;5.35;0.93;;;4.50;99.90;;;;;;20787108;28;20042;-43
2021/12/08 19:36:34;;;;;;;2.20;1.05;;;4.50;99.90;;;;;;20743303;28;20049;-42
2021/12/08 19:46:38;;;;;;;3.97;1.00;;;4.50;99.90;;;;;;20823636;28;20055;-42
2021/12/08 19:56:39;;;;;;;3.13;1.08;;;4.40;99.90;;;;;;20818438;28;20040;-42
2021/12/08 20:06:41;;;;;;;7.82;1.48;;;4.40;99.90;;;;;;20817448;28;20061;-42
2021/12/08 20:16:43;;;;;;;11.88;1.88;;;4.30;99.90;;;;;;20820835;28;20045;-42
2021/12/08 20:26:44;;;;;;;8.48;2.42;;;4.30;99.90;;;;;;20824793;28;20112;-42
2021/12/08 20:36:45;;;;;;;3.35;1.42;;;4.20;99.90;;;;;;20819121;28;20057;-42
2021/12/08 20:46:47;;;;;;;7.20;1.70;;;4.10;99.90;;;;;;20822449;28;20042;-43
2021/12/08 20:56:52;;;;;;;3.33;1.27;;;4.10;99.90;;;;;;20835076;28;20041;-42
2021/12/08 21:06:54;;;;;;;2.28;1.27;;;4.00;99.90;;;;;;20824212;28;20048;-42
2021/12/08 21:16:55;;;;;;;4.00;1.70;;;3.90;99.90;;;;;;20827181;28;20421;-42
2021/12/08 21:26:57;;;;;;;4.05;1.30;;;4.00;99.90;;;;;;20822263;28;20039;-42
2021/12/08 21:36:58;;;;;;;3.40;1.67;;;3.90;99.90;;;;;;20818798;28;20049;-42
2021/12/08 21:46:59;;;;;;;3.05;1.38;;;4.00;99.90;;;;;;20821859;28;20508;-42
2021/12/08 21:57:00;;;;;;;4.03;1.95;;;3.90;99.90;;;;;;20817460;28;20041;-42
2021/12/08 22:07:02;;;;;;;5.90;1.40;;;3.90;99.90;;;;;;20804905;28;20037;-42
2021/12/08 22:17:03;;;;;;;3.70;1.60;;;3.90;99.90;;;;;;20824692;28;20472;-42
2021/12/08 22:27:04;;;;;;;3.05;1.45;;;3.80;99.90;;;;;;20818806;28;20049;-42
2021/12/08 22:37:06;;;;;;;4.07;1.45;;;3.80;99.90;;;;;;20822419;28;20041;-42
2021/12/08 22:47:08;;;;;;;11.02;1.23;;;3.80;99.90;;;;;;20818320;28;20037;-42
2021/12/08 22:57:10;;;;;;;4.22;1.70;;;3.70;99.90;;;;;;20821713;28;20045;-42
2021/12/08 23:07:12;;;;;;;4.55;1.50;;;3.70;99.90;;;;;;20823590;28;20044;-42
2021/12/08 23:17:13;;;;;;;4.30;2.08;;;3.70;99.90;;;;;;20819893;28;20539;-42
2021/12/08 23:27:14;;;;;;;4.75;1.77;;;3.70;99.90;;;;;;20821090;28;20036;-42
2021/12/08 23:37:21;;;;;;;3.30;1.38;;;3.80;99.90;;;;;;20816144;28;20049;-42
2021/12/08 23:47:22;;;;;;;;;;;3.70;99.90;;;;;;20817161;28;20047;-42
2021/12/08 23:57:24;;;;;;;4.85;1.80;;;3.70;99.90;;;;;;20798972;28;19920;-42
